Scroll down
FLIGHT INFORMATION
Boeing

BOE586

At Arrival Gate

KPAE
 PANC
DATE: 2018-08-18
GATE:  -
GATE DEPARTURE: 19:22
TAKEOFF: 19:28
DATE: 2018-08-18
GATE:  -
LANDING: 22:24
GATE ARRIVAL: 22:37
FLIGHT DATA
Crew: 
Speed: 
510 kts
Altitude: 
36,032 ft
Stage Length: 
1,235.2 nm
Block Time: 
3.3 hrs
Flight Time: 
2.9 hrs
Fuel Used: 
63,863 lb
Cleared Route: 
TRACK DATA
50,000 ft 1,000 kts
AIRCRAFT INFO AND CUMULATIVE STATS
Aircraft Type: 
B744
Registration: 
SELCAL: 
EGJP
MSN/LN: 
23719 / 696
Operator: 
Total Flights: 
4
Total Block Time: 
9.7 hrs
Total Flight Time: 
8.7 hrs
Total Fuel Used: 
151,015 lb
DATALINK LOG | Newest first | Current as of: 2022-10-04 20:19:36
LABEL SEQUENCE CONTENT Dn/Up
QD373322:37 26.4▼ Dn
GA3205ADVANCED GATE ASSIGNMENTS NOT YET AVAILABLE AT THIS AIRPORT▲ Up
GR2548PANC▼ Dn
QC243622:24▼ Dn
2U0136PANC 190153Z 00000KT 10SM FEW055 BKN100 BKN140 OVC200 16/09 A3035 RMK AO2 RAE10 SLP279 P0000 T01560094▲ Up
2S5519PANC▼ Dn
2U2259PANC 182353Z 00000KT 10SM SCT050 BKN065 BKN120 15/08 A3037 RMK AO2 SLP285 60000 T01500083 10156 20111 58001▲ Up
2S1638PANC▼ Dn
460148/OV XXX /TM 2014 /FL360 /TP B744 /TA -22 /WV 248/15 /RM NICE DAY▼ Dn
QB285119:28▼ Dn
QA221019:22 90.3▼ Dn
2U0950KPAE 182253Z 31006KT 10SM CLR 23/11 A3016 RMK AO2 SLP213 T02330106▲ Up
2S0046KPAE▼ Dn


AIRCRAFT HISTORY
FLIGHT DATE FLIGHT NO. ORIGIN DESTINATION CLEARED ROUTE BLOCK TIME FLIGHT TIME FUEL USED PILOT
2020-07-25BOE25KLAS KSFO KLAS RBELL ROPPR MDDOG TARRK SHEAD DBIGE BIKKR KENNO RUSME DYAMD LAANE ALWYS FLOWZ CEDES FRELY ARCHI CEPIN RW28R1.3 hrs1 hrs27,560 lbDouglas Morlan
2019-10-08KBFI KLAS 2.1 hrs1.9 hrs0 lbDouglas Morlan
2018-10-28BOE45PANC KBFI TED TED JOH LAIRE BKA DUGGS YYJ3 hrs2.8 hrs59,592 lbTom Landry
2018-08-18BOE586KPAE PANC 3.3 hrs2.9 hrs63,863 lbTom Landry